createdAt,value
2022-10-07T00:10:00.625Z,98303.45
2022-10-07T00:20:05.526Z,98304.25
2022-10-07T00:30:10.219Z,98298.55
2022-10-07T00:40:14.474Z,98296.20
2022-10-07T00:50:24.383Z,98289.04
2022-10-07T01:00:27.971Z,98274.08
2022-10-07T01:10:49.010Z,98267.01
2022-10-07T01:20:58.332Z,98256.41
2022-10-07T01:31:07.580Z,98246.20
2022-10-07T01:41:22.116Z,98243.99
2022-10-07T01:51:29.051Z,98240.21
2022-10-07T02:01:44.134Z,98234.02
2022-10-07T02:11:57.265Z,98228.55
2022-10-07T02:22:03.694Z,98219.84
2022-10-07T02:32:12.225Z,98216.86
2022-10-07T02:42:36.500Z,98217.17
2022-10-07T02:52:44.264Z,98208.69
2022-10-07T03:02:54.376Z,98204.77
2022-10-07T03:13:00.007Z,98202.23
2022-10-07T03:23:04.690Z,98199.63
2022-10-07T03:33:09.982Z,98193.65
2022-10-07T03:43:14.356Z,98186.95
2022-10-07T03:53:19.458Z,98188.68
2022-10-07T04:03:23.154Z,98187.25
2022-10-07T04:13:27.653Z,98177.13
2022-10-07T04:23:31.382Z,98167.16
2022-10-07T04:33:39.634Z,98163.92
2022-10-07T04:43:43.619Z,98165.61
2022-10-07T04:53:57.106Z,98167.16
2022-10-07T05:04:06.613Z,98163.62
2022-10-07T05:14:10.578Z,98161.61
2022-10-07T05:24:15.164Z,98157.45
2022-10-07T05:34:20.812Z,98154.84
2022-10-07T05:44:25.572Z,98154.95
2022-10-07T05:54:30.048Z,98152.77
2022-10-07T06:04:34.535Z,98160.70
2022-10-07T06:14:38.710Z,98159.86
2022-10-07T06:24:43.861Z,98163.98
2022-10-07T06:34:47.929Z,98161.93
2022-10-07T06:44:54.718Z,98160.91
2022-10-07T06:54:59.514Z,98155.69
2022-10-07T07:05:09.496Z,98150.63
2022-10-07T07:15:14.526Z,98151.00
2022-10-07T07:25:20.827Z,98138.95
2022-10-07T07:35:29.513Z,98140.09
2022-10-07T07:45:37.387Z,98131.49
2022-10-07T07:55:55.698Z,98121.88
2022-10-07T08:06:07.558Z,98109.98
2022-10-07T08:16:14.826Z,98108.02
2022-10-07T08:26:19.162Z,98101.71
2022-10-07T08:36:25.054Z,98092.16
2022-10-07T08:46:32.867Z,98079.44
2022-10-07T08:56:36.818Z,98066.30
2022-10-07T09:06:52.764Z,98057.64
2022-10-07T09:17:08.708Z,98044.73
2022-10-07T09:27:18.503Z,98031.75
2022-10-07T09:37:24.532Z,98017.05
2022-10-07T09:47:37.520Z,98000.92
2022-10-07T09:57:42.921Z,97998.30
2022-10-07T10:07:48.580Z,97986.44
2022-10-07T10:17:53.320Z,97975.39
2022-10-07T10:28:14.302Z,97960.45
2022-10-07T10:38:27.765Z,97946.78
2022-10-07T10:48:43.622Z,97931.34
2022-10-07T10:58:58.520Z,97914.23
2022-10-07T11:09:04.314Z,97900.33
2022-10-07T11:19:21.332Z,97888.36
2022-10-07T11:29:46.554Z,97870.38
2022-10-07T11:39:51.610Z,97854.40
2022-10-07T11:50:08.306Z,97845.17
2022-10-07T12:00:33.995Z,97826.40
2022-10-07T12:10:37.683Z,97812.04
2022-10-07T12:20:50.981Z,97800.50
2022-10-07T12:31:03.237Z,97791.66
2022-10-07T12:41:27.188Z,97774.79
2022-10-07T12:51:40.758Z,97762.32
2022-10-07T13:02:17.720Z,97744.48
2022-10-07T13:12:33.535Z,97729.00
2022-10-07T13:22:40.167Z,97712.59
2022-10-07T13:32:44.261Z,97698.84
2022-10-07T13:43:02.143Z,97684.04
2022-10-07T13:53:06.360Z,97670.96
2022-10-07T14:03:17.254Z,97662.16
2022-10-07T14:13:21.817Z,97646.64
2022-10-07T14:23:34.555Z,97634.36
2022-10-07T14:34:13.342Z,97616.06
2022-10-07T14:44:18.649Z,97609.09
2022-10-07T14:54:22.948Z,97592.65
2022-10-07T15:04:27.642Z,97584.58
2022-10-07T15:14:32.305Z,97575.78
2022-10-07T15:24:36.158Z,97574.67
2022-10-07T15:34:40.370Z,97566.73
2022-10-07T15:44:44.941Z,97565.54
2022-10-07T15:54:48.519Z,97560.61
2022-10-07T16:04:53.168Z,97561.89
2022-10-07T16:14:58.301Z,97556.87
2022-10-07T16:25:01.965Z,97549.44
2022-10-07T16:35:06.266Z,97541.17
2022-10-07T16:45:10.311Z,97537.84
2022-10-07T16:55:14.925Z,97533.10
2022-10-07T17:05:19.499Z,97533.16
2022-10-07T17:15:23.768Z,97521.48
2022-10-07T17:25:28.398Z,97515.96
2022-10-07T17:35:33.188Z,97517.09
2022-10-07T17:45:38.156Z,97512.02
2022-10-07T17:55:51.488Z,97511.39
2022-10-07T18:05:56.650Z,97499.07
2022-10-07T18:16:05.517Z,97492.77
2022-10-07T18:26:12.306Z,97484.98
2022-10-07T18:36:19.869Z,97484.89
2022-10-07T18:46:24.612Z,97479.34
2022-10-07T18:56:30.953Z,97481.20
2022-10-07T19:06:39.995Z,97481.79
2022-10-07T19:16:48.806Z,97484.48
2022-10-07T19:26:55.547Z,97485.08
2022-10-07T19:37:02.278Z,97489.31
2022-10-07T19:47:08.103Z,97489.79
2022-10-07T19:57:13.404Z,97486.44
2022-10-07T20:07:18.504Z,97485.89
2022-10-07T20:17:23.301Z,97480.42
2022-10-07T20:27:27.459Z,97483.17
2022-10-07T20:37:31.534Z,97475.72
2022-10-07T20:47:35.617Z,97471.45
2022-10-07T20:57:39.890Z,97465.75
2022-10-07T21:07:43.772Z,97459.89
2022-10-07T21:17:49.179Z,97458.40
2022-10-07T21:27:53.762Z,97453.91
2022-10-07T21:37:58.962Z,97450.21
2022-10-07T21:48:02.857Z,97449.99
2022-10-07T21:58:06.700Z,97436.45
2022-10-07T22:08:34.517Z,97429.56
2022-10-07T22:18:38.999Z,97422.48
2022-10-07T22:28:43.815Z,97409.77
2022-10-07T22:38:47.770Z,97402.54
2022-10-07T22:48:54.212Z,97399.17
2022-10-07T22:59:00.237Z,97388.45
2022-10-07T23:09:04.904Z,97381.45
2022-10-07T23:19:09.723Z,97387.31
2022-10-07T23:29:14.199Z,97383.44
2022-10-07T23:39:18.367Z,97381.05
2022-10-07T23:49:21.997Z,97376.05
2022-10-07T23:59:25.692Z,97368.70
